Station info - map view · info · telemetry · weather · raw · status · beacons · messages · bulletins · browse · moving · my account
Callsign, ship name or locator: Clear       
It is possible to search using wildcards (*?) after a prefix. Example: OH*
APRS station HS8SZH-7 - show graphs
Map loading...
Comment: LAN SAKA NAKHON SI 081-0827245
Last status: LAN SAKA
Location: 12°21.59' N 102°26.50' E - locator OK12FI36AI - show map - static map
0.6 miles Northeast bearing 44° from Khao Saming, Trat, Thailand [?]
9.4 miles Northwest bearing 328° from Trat, Trat, Thailand
28.5 miles Southeast bearing 127° from Chanthaburi, Chanthaburi, Thailand
72.3 miles Southwest bearing 225° from Bătdâmbâng, Khétt Bătdâmbâng, Cambodia
Last position: 2017-04-15 03:28:34 EDT (8d 16h12m ago)
2017-04-15 14:28:34 ICT local time at Khao Saming, Thailand [?]
Altitude: 41 ft
Course: 128°
Speed: 3 MPH
Device: Argent Data Systems: OpenTracker (tracker)
Last path: HS8SZH-7>APOT21 via WIDE1-1,WIDE2-1,qAR,HS2QEA-1 (good)
Positions stored: 140803
Other SSIDs: HS8SZH HS8SZH-1 HS8SZH-12
Stations near current position of HS8SZH-7 - show more
callsign distance last heard - EDT      callsign distance last heard - EDT
E24JAL-917.1 miles 17°2017-04-17 20:59:33 E24JAL-517.5 miles 8°2017-04-22 23:50:19
HS2PID-524.7 miles 309°2017-04-23 05:57:46 E20OGB-229.1 miles 284°2017-04-23 19:30:02
HS2QEA-929.5 miles 313°2017-04-23 13:14:46 E27CUU-929.5 miles 313°2017-04-23 07:36:23
E20OGB-329.9 miles 300°2017-04-19 14:05:28 HS2QJJ-234.0 miles 305°2017-04-23 19:33:51
HS2QJJ-334.0 miles 305°2017-04-19 14:07:36 HS2QJJ-1434.0 miles 305°2017-04-17 09:01:56
HS2QJJ-434.0 miles 305°2017-04-18 08:39:02 HS2QJJ34.0 miles 305°2017-04-23 19:35:35
HS2QJJ-734.0 miles 305°2017-04-23 19:41:09 HS2QJJ-134.0 miles 305°2017-04-23 19:32:53
HS2QJJ-1034.1 miles 305°2017-04-21 21:11:44 HS2QJJ-535.3 miles 289°2017-04-22 00:55:16
Stations which heard HS8SZH-7 directly on radio –
callsign pkts first heard - EDT last heard longest (tx => rx) longest at - EDT
HS8SZH-1 7 2017-04-10 13:42:01 2017-04-10 14:03:49 NJ98XM > NJ98WJ 9.9 miles 213° 2017-04-10 14:03:49
HS7PFS-1 1 2017-04-11 00:37:15 2017-04-11 00:37:15 OK03DN > OK03AL 15.3 miles 247° 2017-04-11 00:37:15
E20OGB-2 1 2017-04-15 01:32:31 2017-04-15 01:32:31 OK12BO > OK12AL 12.2 miles 221° 2017-04-15 01:32:31
HS2NBE 1 2017-04-10 23:37:40 2017-04-10 23:37:40 NK93XC > OK03AC 5.5 miles 94° 2017-04-10 23:37:40
E29DLR-7 4 2017-04-11 00:28:46 2017-04-11 00:42:57 OK03BM > OK03CN 6.6 miles 70° 2017-04-11 00:28:46
E21DII 3 2017-04-11 01:34:06 2017-04-11 01:58:04 OK03LM > OK03IO 19.8 miles 280° 2017-04-11 01:58:04
HS1KEN 1 2017-04-11 01:36:50 2017-04-11 01:36:50 OK03IP > OK03KU 19.1 miles 43° 2017-04-11 01:36:50
HS1CPP 1 2017-04-11 01:08:20 2017-04-11 01:08:20 OK03EP > OK03GR 7.9 miles 51° 2017-04-11 01:08:20
E22ULT-5 1 2017-04-11 00:43:55 2017-04-11 00:43:55 OK03DN > OK03AT 24.1 miles 313° 2017-04-11 00:43:55
HS1BLJ-1 1 2017-04-11 01:34:24 2017-04-11 01:34:24 OK03IP > OK03IO 3.2 miles 159° 2017-04-11 01:34:24
HS2EOY-1 2 2017-04-11 03:38:49 2017-04-11 03:45:56 OK02US > OK02PQ 27.5 miles 259° 2017-04-11 03:45:56
HS2QEA-1 13 2017-04-11 04:44:40 2017-04-15 03:28:34 OK12FI > OK02XR 40.7 miles 308° 2017-04-15 03:28:34
HS6SQF-1 1 2017-04-11 02:53:17 2017-04-11 02:53:17 OK03OF > OK03LH 19.8 miles 288° 2017-04-11 02:53:17
HS1IFU 1 2017-04-11 01:36:48 2017-04-11 01:36:48 OK03IP > OK03HT 13.2 miles 345° 2017-04-11 01:36:48
HS5TQA-3 3 2017-04-11 00:44:36 2017-04-11 01:08:58 OK03DN > OK03EQ 9.0 miles 18° 2017-04-11 00:44:36
E20BFQ 7 2017-04-11 00:42:22 2017-04-11 01:08:47 OK03EP > OK03DO 6.2 miles 247° 2017-04-11 01:08:47
E20BFQ-3 1 2017-04-11 01:08:28 2017-04-11 01:08:28 OK03EP > OK03FN 4.3 miles 171° 2017-04-11 01:08:28
E29WWT-1 3 2017-04-10 15:57:40 2017-04-10 16:15:59 NJ99PE > NJ99NB 14.6 miles 231° 2017-04-10 15:57:40
E21EIC 3 2017-04-11 00:43:53 2017-04-11 01:04:54 OK03DN > OK03FQ 14.8 miles 61° 2017-04-11 00:43:53
HS2QJJ 25 2017-04-11 03:54:55 2017-04-15 03:28:11 OK12FI > OK12AP 34.0 miles 305° 2017-04-15 03:28:11
HS8PPU-1 7 2017-04-10 13:41:52 2017-04-10 16:16:52 NJ99ND > NJ98WT 55.1 miles 116° 2017-04-10 16:16:52
HS8SZH 2 2017-04-10 13:49:33 2017-04-10 13:57:51 NJ98XK > NJ98VJ 8.2 miles 239° 2017-04-10 13:57:51
E27HUQ-1 1 2017-04-11 02:38:50 2017-04-11 02:38:50 OK03OF > OK03NB 13.8 miles 218° 2017-04-11 02:38:50
E21RBE-1 1 2017-04-11 02:53:28 2017-04-11 02:53:28 OK03OF > OK03MH 16.5 miles 297° 2017-04-11 02:53:28
E27EHM-1 3 2017-04-11 03:05:08 2017-04-11 03:31:15 OK02TU > OK03QC 23.9 miles 324° 2017-04-11 03:31:15
E27ASY-1 1 2017-04-11 02:38:50 2017-04-11 02:38:50 OK03OF > OK03OG 6.9 miles 322° 2017-04-11 02:38:50
E27DRU-3 1 2017-04-11 03:38:49 2017-04-11 03:38:49 OK02TS > OK02OQ 29.5 miles 255° 2017-04-11 03:38:49
HS1ZHY-1 1 2017-04-11 01:36:48 2017-04-11 01:36:48 OK03IP > OK04HA 25.7 miles 350° 2017-04-11 01:36:48
HS0QKD-2 1 2017-04-11 01:34:26 2017-04-11 01:34:26 OK03IP > OK03LB 41.9 miles 157° 2017-04-11 01:34:26
E27BXY-1 2 2017-04-11 02:38:57 2017-04-11 02:39:43 OK03OF > OK03PJ 11.9 miles 11° 2017-04-11 02:39:43
HS1RBD 2 2017-04-11 00:57:35 2017-04-11 01:08:28 OK03EP > OK03EN 5.5 miles 222° 2017-04-11 01:08:28
E24REN-1 3 2017-04-11 02:39:03 2017-04-11 03:20:05 OK03OF > OK03QB 14.3 miles 130° 2017-04-11 02:39:03
E27UF 5 2017-04-11 03:31:03 2017-04-11 03:58:19 OK02TU > OK02VT 9.8 miles 101° 2017-04-11 03:31:03
HS1HTW-10 1 2017-04-11 01:36:43 2017-04-11 01:36:43 OK03IP > OK03IS 9.5 miles 9° 2017-04-11 01:36:43
HS7XRH-6 1 2017-04-11 02:30:13 2017-04-11 02:30:13 OK03NH > OK02MS 37.9 miles 195° 2017-04-11 02:30:13

Only position packets which were originated by the station are shown here. The range statistics show some extra long hops, because some digipeaters do not correctly add themselves to the digipeater path. Please check the raw packets.
About this site
This page shows real-time information collected from the Automatic Position Reporting System Internet network (APRS-IS). APRS is used by amateur (ham) radio operators to transmit real-time position information, weather data, telemetry and messages over the radio. A vehicle equipped with a GPS receiver, a VHF transmitter or HF transceiver and a small computer device called a tracker transmits it's location, speed and course in a small data packet, which is then received by a nearby iGate receiving site which forwards the packet on the Internet. Systems connected to the Internet can send information on the APRS-IS without a radio transmitter, or collect and display information transmitted anywhere in the world.
FAQ · Blog · Discussion group · Linking to aprs.fi · AIS sites · Service status · Database statistics · Advertising on aprs.fi · Technical details · API · Change log · Planned changes · Credits and thanks · Terms Of Service · iPhone/iPad APRS